Thunder radar more information blitzortung!


Radar de pluja more information rain snow radar


Visita la nostra xarxa de llocs de meteo:

Template documentation
and downloads

And another site



No particular awareness of the weather is required.    There are no Weather-warnings

Pagina Historial Weather Underground text

Diari Resum May 5, 2017 Unitats:  Tant    Imperial   Mètric
« Previous Dia
SegĂźent Dia »
Diari Setmana Mensual Anual Personalitzada
  Maxima: Minima: Media:
Temperatura: TemperatureC °F /  -17.8 °C 11.9 °F /  -11.2 °C 17.3 °F /  -8.2 °C
Punt de rosada: DewpointC °F /  -17.8 °C 6.8 °F /  -14 °C 9.3 °F /  -12.6 °C
Humitat: Humidity % 44 % 60 %
Wind Speed: WindSpeedKMH mph /  0 km/h - 9.6 mph /  15.4 km/h
RĂ fegues de vent: WindSpeedGustKMH mph /  0 km/h - -
Vent:- - East
Pression baro: PressurehPa in /  0 hPa 1009.0 in /  34164.7 hPa -
Precipitacions: 0.0 in /  0 mm    
Historical Graphs
 
 
Dades de taula per May 5, 2017
Temps Temperatura Punt de rosada Pression baro Vent Wind Speed RĂ fegues de vent Humitat Rainfall Rate (Hourly)
TemperatureC °F /  -17.8 °C DewpointC °F /  -17.8 °C PressurehPa in /  0 hPa Calm     Humidity % HourlyPrecipMM in /  0 mm
00:01 14.4 °F /  -9.8 °C 11.0 °F /  -11.7 °C 1015.8 in /  34395 hPa NNE 3.7 mph /  6 km/h 3.7 mph /  6 km/h 80 % 0.0 in /  0 mm
00:05 12.6 °F /  -10.8 °C 9.8 °F /  -12.3 °C 1013.8 in /  34327.3 hPa NE 3.2 mph /  5.1 km/h 3.2 mph /  5.1 km/h 83 % 0.0 in /  0 mm
00:06 14.4 °F /  -9.8 °C 11.2 °F /  -11.6 °C 1015.8 in /  34395 hPa NE 3.7 mph /  6 km/h 3.7 mph /  6 km/h 81 % 0.0 in /  0 mm
00:11 14.4 °F /  -9.8 °C 11.0 °F /  -11.7 °C 1015.8 in /  34395 hPa NNE 3.7 mph /  6 km/h 3.7 mph /  6 km/h 80 % 0.0 in /  0 mm
00:15 12.6 °F /  -10.8 °C 9.8 °F /  -12.3 °C 1013.8 in /  34327.3 hPa NE 3.2 mph /  5.1 km/h 4.8 mph /  7.7 km/h 83 % 0.0 in /  0 mm
00:25 12.6 °F /  -10.8 °C 9.8 °F /  -12.3 °C 1013.8 in /  34327.3 hPa ENE 4.8 mph /  7.7 km/h 4.8 mph /  7.7 km/h 83 % 0.0 in /  0 mm
00:35 12.6 °F /  -10.8 °C 9.8 °F /  -12.3 °C 1013.8 in /  34327.3 hPa ENE 3.2 mph /  5.1 km/h 4.8 mph /  7.7 km/h 83 % 0.0 in /  0 mm
00:45 12.5 °F /  -10.8 °C 9.7 °F /  -12.4 °C 1013.8 in /  34327.3 hPa ENE 1.6 mph /  2.6 km/h 4.8 mph /  7.7 km/h 83 % 0.0 in /  0 mm
00:55 12.4 °F /  -10.9 °C 9.6 °F /  -12.4 °C 1013.8 in /  34327.3 hPa NE 3.2 mph /  5.1 km/h 4.8 mph /  7.7 km/h 83 % 0.0 in /  0 mm
01:05 12.4 °F /  -10.9 °C 9.6 °F /  -12.4 °C 1012.8 in /  34293.4 hPa NE 3.2 mph /  5.1 km/h 4.8 mph /  7.7 km/h 83 % 0.0 in /  0 mm
01:15 12.2 °F /  -11 °C 9.6 °F /  -12.4 °C 1012.8 in /  34293.4 hPa NE 3.2 mph /  5.1 km/h 4.8 mph /  7.7 km/h 84 % 0.0 in /  0 mm
01:25 12.1 °F /  -11.1 °C 9.5 °F /  -12.5 °C 1013.8 in /  34327.3 hPa NNE 3.2 mph /  5.1 km/h 4.8 mph /  7.7 km/h 84 % 0.0 in /  0 mm
01:35 12.0 °F /  -11.1 °C 9.4 °F /  -12.6 °C 1013.8 in /  34327.3 hPa NNE 4.8 mph /  7.7 km/h 6.4 mph /  10.3 km/h 84 % 0.0 in /  0 mm
01:45 12.0 °F /  -11.1 °C 9.4 °F /  -12.6 °C 1013.8 in /  34327.3 hPa NE 4.8 mph /  7.7 km/h 6.4 mph /  10.3 km/h 84 % 0.0 in /  0 mm
01:55 12.0 °F /  -11.1 °C 9.4 °F /  -12.6 °C 1013.8 in /  34327.3 hPa NE 3.2 mph /  5.1 km/h 4.8 mph /  7.7 km/h 84 % 0.0 in /  0 mm
02:05 11.9 °F /  -11.2 °C 9.3 °F /  -12.6 °C 1014.8 in /  34361.1 hPa NE 1.6 mph /  2.6 km/h 4.8 mph /  7.7 km/h 84 % 0.0 in /  0 mm
02:15 12.1 °F /  -11.1 °C 9.5 °F /  -12.5 °C 1014.8 in /  34361.1 hPa NE 3.2 mph /  5.1 km/h 3.2 mph /  5.1 km/h 84 % 0.0 in /  0 mm
02:25 12.1 °F /  -11.1 °C 9.5 °F /  -12.5 °C 1014.8 in /  34361.1 hPa NE 3.2 mph /  5.1 km/h 4.8 mph /  7.7 km/h 84 % 0.0 in /  0 mm
02:35 12.2 °F /  -11 °C 9.6 °F /  -12.4 °C 1014.8 in /  34361.1 hPa NE 4.8 mph /  7.7 km/h 8.0 mph /  12.9 km/h 84 % 0.0 in /  0 mm
02:45 12.2 °F /  -11 °C 9.6 °F /  -12.4 °C 1014.8 in /  34361.1 hPa NE 3.2 mph /  5.1 km/h 4.8 mph /  7.7 km/h 84 % 0.0 in /  0 mm
02:55 12.3 °F /  -10.9 °C 9.7 °F /  -12.4 °C 1014.8 in /  34361.1 hPa Calm   4.8 mph /  7.7 km/h 84 % 0.0 in /  0 mm
03:05 12.3 °F /  -10.9 °C 9.7 °F /  -12.4 °C 1014.8 in /  34361.1 hPa NE 3.2 mph /  5.1 km/h 4.8 mph /  7.7 km/h 84 % 0.0 in /  0 mm
03:15 12.4 °F /  -10.9 °C 9.8 °F /  -12.3 °C 1014.8 in /  34361.1 hPa NNE 4.8 mph /  7.7 km/h 6.4 mph /  10.3 km/h 84 % 0.0 in /  0 mm
03:25 12.6 °F /  -10.8 °C 9.9 °F /  -12.3 °C 1014.8 in /  34361.1 hPa NNE 8.0 mph /  12.9 km/h 9.7 mph /  15.6 km/h 84 % 0.0 in /  0 mm
03:35 12.9 °F /  -10.6 °C 10.3 °F /  -12.1 °C 1014.8 in /  34361.1 hPa NE 4.8 mph /  7.7 km/h 12.9 mph /  20.8 km/h 84 % 0.0 in /  0 mm
03:45 13.3 °F /  -10.4 °C 10.7 °F /  -11.8 °C 1014.8 in /  34361.1 hPa ENE 4.8 mph /  7.7 km/h 9.7 mph /  15.6 km/h 84 % 0.0 in /  0 mm
03:55 13.5 °F /  -10.3 °C 10.7 °F /  -11.8 °C 1014.8 in /  34361.1 hPa NE 8.0 mph /  12.9 km/h 8.0 mph /  12.9 km/h 83 % 0.0 in /  0 mm
04:05 13.6 °F /  -10.2 °C 10.6 °F /  -11.9 °C 1013.8 in /  34327.3 hPa ENE 8.0 mph /  12.9 km/h 11.3 mph /  18.2 km/h 82 % 0.0 in /  0 mm
04:15 13.8 °F /  -10.1 °C 10.8 °F /  -11.8 °C 1013.8 in /  34327.3 hPa East 4.8 mph /  7.7 km/h 6.4 mph /  10.3 km/h 82 % 0.0 in /  0 mm
04:25 13.9 °F /  -10.1 °C 10.9 °F /  -11.7 °C 1014.8 in /  34361.1 hPa East 8.0 mph /  12.9 km/h 11.3 mph /  18.2 km/h 82 % 0.0 in /  0 mm
04:35 14.0 °F /  -10 °C 10.8 °F /  -11.8 °C 1013.8 in /  34327.3 hPa ENE 3.2 mph /  5.1 km/h 8.0 mph /  12.9 km/h 81 % 0.0 in /  0 mm
04:45 14.2 °F /  -9.9 °C 11.0 °F /  -11.7 °C 1013.8 in /  34327.3 hPa ENE 8.0 mph /  12.9 km/h 11.3 mph /  18.2 km/h 81 % 0.0 in /  0 mm
04:55 14.5 °F /  -9.7 °C 11.1 °F /  -11.6 °C 1014.8 in /  34361.1 hPa ENE 8.0 mph /  12.9 km/h 9.7 mph /  15.6 km/h 80 % 0.0 in /  0 mm
05:05 14.8 °F /  -9.6 °C 11.2 °F /  -11.6 °C 1013.8 in /  34327.3 hPa NE 8.0 mph /  12.9 km/h 12.9 mph /  20.8 km/h 79 % 0.0 in /  0 mm
05:15 15.3 °F /  -9.3 °C 11.7 °F /  -11.3 °C 1013.8 in /  34327.3 hPa NE 8.0 mph /  12.9 km/h 9.7 mph /  15.6 km/h 79 % 0.0 in /  0 mm
05:25 15.7 °F /  -9.1 °C 11.9 °F /  -11.2 °C 1014.8 in /  34361.1 hPa ENE 8.0 mph /  12.9 km/h 9.7 mph /  15.6 km/h 78 % 0.0 in /  0 mm
05:35 16.0 °F /  -8.9 °C 11.8 °F /  -11.2 °C 1014.8 in /  34361.1 hPa ENE 8.0 mph /  12.9 km/h 12.9 mph /  20.8 km/h 76 % 0.0 in /  0 mm
10:42 16.0 °F /  -8.9 °C 11.6 °F /  -11.3 °C 1014.8 in /  34361.1 hPa NNE 7.4 mph /  11.9 km/h 7.4 mph /  11.9 km/h 75 % 0.0 in /  0 mm
10:47 16.1 °F /  -8.8 °C 11.7 °F /  -11.3 °C 1014.8 in /  34361.1 hPa East 7.4 mph /  11.9 km/h 7.4 mph /  11.9 km/h 75 % 0.0 in /  0 mm
10:52 16.2 °F /  -8.8 °C 11.6 °F /  -11.3 °C 1014.8 in /  34361.1 hPa ESE 9.3 mph /  15 km/h 9.3 mph /  15 km/h 74 % 0.0 in /  0 mm
10:57 16.3 °F /  -8.7 °C 11.7 °F /  -11.3 °C 1014.8 in /  34361.1 hPa ENE 7.4 mph /  11.9 km/h 7.4 mph /  11.9 km/h 74 % 0.0 in /  0 mm
11:02 16.6 °F /  -8.6 °C 11.7 °F /  -11.3 °C 1014.8 in /  34361.1 hPa ESE 9.5 mph /  15.3 km/h 9.5 mph /  15.3 km/h 73 % 0.0 in /  0 mm
11:07 17.1 °F /  -8.3 °C 11.4 °F /  -11.4 °C 1014.8 in /  34361.1 hPa ENE 5.6 mph /  9 km/h 5.6 mph /  9 km/h 69 % 0.0 in /  0 mm
11:12 16.9 °F /  -8.4 °C 10.9 °F /  -11.7 °C 1014.8 in /  34361.1 hPa SE 9.3 mph /  15 km/h 9.3 mph /  15 km/h 68 % 0.0 in /  0 mm
11:17 17.3 °F /  -8.2 °C 11.3 °F /  -11.5 °C 1014.8 in /  34361.1 hPa SW 3.7 mph /  6 km/h 3.7 mph /  6 km/h 68 % 0.0 in /  0 mm
11:22 17.8 °F /  -7.9 °C 12.3 °F /  -10.9 °C 1014.8 in /  34361.1 hPa West 3.9 mph /  6.3 km/h 3.9 mph /  6.3 km/h 70 % 0.0 in /  0 mm
11:27 18.2 °F /  -7.7 °C 12.4 °F /  -10.9 °C 1015.8 in /  34395 hPa West 5.6 mph /  9 km/h 5.6 mph /  9 km/h 69 % 0.0 in /  0 mm
11:32 18.3 °F /  -7.6 °C 12.5 °F /  -10.8 °C 1015.8 in /  34395 hPa WSW 3.7 mph /  6 km/h 3.7 mph /  6 km/h 69 % 0.0 in /  0 mm
11:37 18.5 °F /  -7.5 °C 12.7 °F /  -10.7 °C 1015.8 in /  34395 hPa NNW 3.7 mph /  6 km/h 3.7 mph /  6 km/h 69 % 0.0 in /  0 mm
11:42 19.0 °F /  -7.2 °C 12.5 °F /  -10.8 °C 1015.8 in /  34395 hPa ESE 2.3 mph /  3.7 km/h 2.3 mph /  3.7 km/h 66 % 0.0 in /  0 mm
11:47 19.6 °F /  -6.9 °C 13.1 °F /  -10.5 °C 1015.8 in /  34395 hPa SW 3.7 mph /  6 km/h 3.7 mph /  6 km/h 66 % 0.0 in /  0 mm
11:52 19.7 °F /  -6.8 °C 13.4 °F /  -10.3 °C 1015.8 in /  34395 hPa WSW 5.3 mph /  8.5 km/h 5.3 mph /  8.5 km/h 67 % 0.0 in /  0 mm
11:57 19.9 °F /  -6.7 °C 13.1 °F /  -10.5 °C 1015.8 in /  34395 hPa SSW 3.7 mph /  6 km/h 3.7 mph /  6 km/h 65 % 0.0 in /  0 mm
12:02 19.9 °F /  -6.7 °C 12.9 °F /  -10.6 °C 1015.8 in /  34395 hPa SW 3.7 mph /  6 km/h 3.7 mph /  6 km/h 64 % 0.0 in /  0 mm
12:07 19.6 °F /  -6.9 °C 12.4 °F /  -10.9 °C 1015.8 in /  34395 hPa ENE 3.2 mph /  5.1 km/h 3.2 mph /  5.1 km/h 63 % 0.0 in /  0 mm
12:12 19.1 °F /  -7.2 °C 11.7 °F /  -11.3 °C 1014.8 in /  34361.1 hPa ESE 5.6 mph /  9 km/h 5.6 mph /  9 km/h 62 % 0.0 in /  0 mm
12:17 19.4 °F /  -7 °C 11.9 °F /  -11.2 °C 1014.8 in /  34361.1 hPa East 1.9 mph /  3.1 km/h   62 % 0.0 in /  0 mm
12:22 19.2 °F /  -7.1 °C 11.7 °F /  -11.3 °C 1014.8 in /  34361.1 hPa NNE 5.6 mph /  9 km/h 5.6 mph /  9 km/h 62 % 0.0 in /  0 mm
12:27 19.0 °F /  -7.2 °C 11.3 °F /  -11.5 °C 1014.8 in /  34361.1 hPa ESE 5.6 mph /  9 km/h 5.6 mph /  9 km/h 61 % 0.0 in /  0 mm
12:32 19.0 °F /  -7.2 °C 11.6 °F /  -11.3 °C 1014.8 in /  34361.1 hPa East 3.9 mph /  6.3 km/h 3.9 mph /  6.3 km/h 62 % 0.0 in /  0 mm
12:37 18.7 °F /  -7.4 °C 11.3 °F /  -11.5 °C 1014.8 in /  34361.1 hPa ESE 3.9 mph /  6.3 km/h 3.9 mph /  6.3 km/h 62 % 0.0 in /  0 mm
12:42 18.9 °F /  -7.3 °C 11.7 °F /  -11.3 °C 1014.8 in /  34361.1 hPa East 4.7 mph /  7.6 km/h 4.7 mph /  7.6 km/h 63 % 0.0 in /  0 mm
12:47 18.9 °F /  -7.3 °C 11.7 °F /  -11.3 °C 1014.8 in /  34361.1 hPa NNE 6.4 mph /  10.3 km/h 6.4 mph /  10.3 km/h 63 % 0.0 in /  0 mm
12:52 19.1 °F /  -7.2 °C 11.7 °F /  -11.3 °C 1014.8 in /  34361.1 hPa ENE 7.4 mph /  11.9 km/h 7.4 mph /  11.9 km/h 62 % 0.0 in /  0 mm
12:57 19.1 °F /  -7.2 °C 11.7 °F /  -11.3 °C 1014.8 in /  34361.1 hPa East 13.7 mph /  22 km/h 13.7 mph /  22 km/h 62 % 0.0 in /  0 mm
13:02 19.1 °F /  -7.2 °C 11.7 °F /  -11.3 °C 1014.8 in /  34361.1 hPa ENE 9.3 mph /  15 km/h 9.3 mph /  15 km/h 62 % 0.0 in /  0 mm
13:07 19.2 °F /  -7.1 °C 11.5 °F /  -11.4 °C 1014.8 in /  34361.1 hPa ENE 9.3 mph /  15 km/h 9.3 mph /  15 km/h 61 % 0.0 in /  0 mm
13:13 19.6 °F /  -6.9 °C 11.9 °F /  -11.2 °C 1012.8 in /  34293.4 hPa East 13.0 mph /  20.9 km/h 13.0 mph /  20.9 km/h 61 % 0.0 in /  0 mm
13:18 19.8 °F /  -6.8 °C 11.8 °F /  -11.2 °C 1012.8 in /  34293.4 hPa ENE 14.8 mph /  23.8 km/h 14.8 mph /  23.8 km/h 60 % 0.0 in /  0 mm
13:23 20.0 °F /  -6.7 °C 11.2 °F /  -11.6 °C 1012.8 in /  34293.4 hPa NNE 14.8 mph /  23.8 km/h 14.8 mph /  23.8 km/h 57 % 0.0 in /  0 mm
13:28 19.7 °F /  -6.8 °C 11.2 °F /  -11.6 °C 1012.8 in /  34293.4 hPa ESE 16.7 mph /  26.9 km/h 16.7 mph /  26.9 km/h 58 % 0.0 in /  0 mm
13:33 19.9 °F /  -6.7 °C 10.8 °F /  -11.8 °C 1012.8 in /  34293.4 hPa East 13.0 mph /  20.9 km/h 13.0 mph /  20.9 km/h 56 % 0.0 in /  0 mm
13:38 19.7 °F /  -6.8 °C 9.6 °F /  -12.4 °C 1012.8 in /  34293.4 hPa ESE 22.2 mph /  35.7 km/h 22.2 mph /  35.7 km/h 52 % 0.0 in /  0 mm
13:43 20.0 °F /  -6.7 °C 10.1 °F /  -12.2 °C 1012.8 in /  34293.4 hPa ESE 13.0 mph /  20.9 km/h 13.0 mph /  20.9 km/h 53 % 0.0 in /  0 mm
13:48 20.3 °F /  -6.5 °C 10.1 °F /  -12.2 °C 1012.8 in /  34293.4 hPa SE 16.7 mph /  26.9 km/h 16.7 mph /  26.9 km/h 52 % 0.0 in /  0 mm
13:53 20.4 °F /  -6.4 °C 9.6 °F /  -12.4 °C 1012.8 in /  34293.4 hPa ESE 16.7 mph /  26.9 km/h 16.7 mph /  26.9 km/h 50 % 0.0 in /  0 mm
13:58 20.5 °F /  -6.4 °C 9.7 °F /  -12.4 °C 1012.8 in /  34293.4 hPa SE 18.5 mph /  29.8 km/h 18.5 mph /  29.8 km/h 50 % 0.0 in /  0 mm
14:03 20.9 °F /  -6.2 °C 10.4 °F /  -12 °C 1012.8 in /  34293.4 hPa East 13.0 mph /  20.9 km/h 13.0 mph /  20.9 km/h 51 % 0.0 in /  0 mm
14:08 21.0 °F /  -6.1 °C 10.2 °F /  -12.1 °C 1012.8 in /  34293.4 hPa NNE 9.3 mph /  15 km/h 9.3 mph /  15 km/h 50 % 0.0 in /  0 mm
14:13 21.4 °F /  -5.9 °C 10.6 °F /  -11.9 °C 1010.7 in /  34222.3 hPa ENE 11.1 mph /  17.9 km/h 11.1 mph /  17.9 km/h 50 % 0.0 in /  0 mm
14:18 21.5 °F /  -5.8 °C 10.6 °F /  -11.9 °C 1010.7 in /  34222.3 hPa East 9.3 mph /  15 km/h 9.3 mph /  15 km/h 50 % 0.0 in /  0 mm
14:23 21.9 °F /  -5.6 °C 11.0 °F /  -11.7 °C 1010.7 in /  34222.3 hPa ENE 14.8 mph /  23.8 km/h 14.8 mph /  23.8 km/h 50 % 0.0 in /  0 mm
14:28 21.8 °F /  -5.7 °C 10.9 °F /  -11.7 °C 1012.8 in /  34293.4 hPa ESE 11.1 mph /  17.9 km/h 11.1 mph /  17.9 km/h 50 % 0.0 in /  0 mm
14:33 21.5 °F /  -5.8 °C 10.3 °F /  -12.1 °C 1012.8 in /  34293.4 hPa SE 18.5 mph /  29.8 km/h 18.5 mph /  29.8 km/h 49 % 0.0 in /  0 mm
14:38 21.9 °F /  -5.6 °C 10.7 °F /  -11.8 °C 1012.8 in /  34293.4 hPa ESE 16.4 mph /  26.4 km/h 16.4 mph /  26.4 km/h 49 % 0.0 in /  0 mm
14:43 21.8 °F /  -5.7 °C 10.6 °F /  -11.9 °C 1011.7 in /  34256.2 hPa ESE 11.1 mph /  17.9 km/h 11.1 mph /  17.9 km/h 49 % 0.0 in /  0 mm
14:48 21.8 °F /  -5.7 °C 10.3 °F /  -12.1 °C 1011.7 in /  34256.2 hPa ESE 13.0 mph /  20.9 km/h 13.0 mph /  20.9 km/h 48 % 0.0 in /  0 mm
14:53 21.5 °F /  -5.8 °C 10.0 °F /  -12.2 °C 1011.7 in /  34256.2 hPa ENE 13.0 mph /  20.9 km/h 13.0 mph /  20.9 km/h 48 % 0.0 in /  0 mm
14:58 21.7 °F /  -5.7 °C 9.9 °F /  -12.3 °C 1011.7 in /  34256.2 hPa ENE 20.4 mph /  32.8 km/h 20.4 mph /  32.8 km/h 47 % 0.0 in /  0 mm
15:03 21.3 °F /  -5.9 °C 9.2 °F /  -12.7 °C 1011.7 in /  34256.2 hPa ESE 24.1 mph /  38.8 km/h 24.1 mph /  38.8 km/h 46 % 0.0 in /  0 mm
15:08 21.1 °F /  -6.1 °C 9.3 °F /  -12.6 °C 1011.7 in /  34256.2 hPa East 16.7 mph /  26.9 km/h 16.7 mph /  26.9 km/h 47 % 0.0 in /  0 mm
15:13 20.9 °F /  -6.2 °C 8.8 °F /  -12.9 °C 1011.7 in /  34256.2 hPa ESE 22.2 mph /  35.7 km/h 22.2 mph /  35.7 km/h 46 % 0.0 in /  0 mm
15:18 20.8 °F /  -6.2 °C 8.8 °F /  -12.9 °C 1011.7 in /  34256.2 hPa ENE 27.8 mph /  44.7 km/h 27.8 mph /  44.7 km/h 46 % 0.0 in /  0 mm
15:23 21.3 °F /  -5.9 °C 9.2 °F /  -12.7 °C 1011.7 in /  34256.2 hPa East 9.3 mph /  15 km/h 9.3 mph /  15 km/h 46 % 0.0 in /  0 mm
15:28 21.0 °F /  -6.1 °C 8.3 °F /  -13.2 °C 1011.7 in /  34256.2 hPa NNE 13.0 mph /  20.9 km/h 13.0 mph /  20.9 km/h 44 % 0.0 in /  0 mm
15:33 21.1 °F /  -6.1 °C 8.7 °F /  -12.9 °C 1011.7 in /  34256.2 hPa ENE 15.6 mph /  25.1 km/h 15.6 mph /  25.1 km/h 45 % 0.0 in /  0 mm
15:38 21.2 °F /  -6 °C 9.1 °F /  -12.7 °C 1011.7 in /  34256.2 hPa East 16.7 mph /  26.9 km/h 16.7 mph /  26.9 km/h 46 % 0.0 in /  0 mm
15:43 21.0 °F /  -6.1 °C 8.9 °F /  -12.8 °C 1011.7 in /  34256.2 hPa ESE 21.7 mph /  34.9 km/h 21.7 mph /  34.9 km/h 46 % 0.0 in /  0 mm
15:48 20.8 °F /  -6.2 °C 9.4 °F /  -12.6 °C 1011.7 in /  34256.2 hPa SE 18.5 mph /  29.8 km/h 18.5 mph /  29.8 km/h 48 % 0.0 in /  0 mm
15:53 20.4 °F /  -6.4 °C 9.3 °F /  -12.6 °C 1011.7 in /  34256.2 hPa ESE 18.5 mph /  29.8 km/h 18.5 mph /  29.8 km/h 49 % 0.0 in /  0 mm
15:58 20.4 °F /  -6.4 °C 9.3 °F /  -12.6 °C 1011.7 in /  34256.2 hPa ESE 20.4 mph /  32.8 km/h 20.4 mph /  32.8 km/h 49 % 0.0 in /  0 mm
16:03 20.2 °F /  -6.6 °C 9.2 °F /  -12.7 °C 1011.7 in /  34256.2 hPa SSE 20.4 mph /  32.8 km/h 20.4 mph /  32.8 km/h 49 % 0.0 in /  0 mm
16:08 20.0 °F /  -6.7 °C 9.3 °F /  -12.6 °C 1011.7 in /  34256.2 hPa ESE 13.0 mph /  20.9 km/h 13.0 mph /  20.9 km/h 50 % 0.0 in /  0 mm
16:13 20.1 °F /  -6.6 °C 9.3 °F /  -12.6 °C 1011.7 in /  34256.2 hPa ESE 22.2 mph /  35.7 km/h 22.2 mph /  35.7 km/h 50 % 0.0 in /  0 mm
16:18 19.9 °F /  -6.7 °C 9.4 °F /  -12.6 °C 1011.7 in /  34256.2 hPa ENE 20.4 mph /  32.8 km/h 20.4 mph /  32.8 km/h 51 % 0.0 in /  0 mm
16:23 20.0 °F /  -6.7 °C 9.8 °F /  -12.3 °C 1011.7 in /  34256.2 hPa East 18.5 mph /  29.8 km/h 18.5 mph /  29.8 km/h 52 % 0.0 in /  0 mm
16:28 20.0 °F /  -6.7 °C 9.8 °F /  -12.3 °C 1011.7 in /  34256.2 hPa ENE 16.7 mph /  26.9 km/h 16.7 mph /  26.9 km/h 52 % 0.0 in /  0 mm
16:33 20.0 °F /  -6.7 °C 9.8 °F /  -12.3 °C 1011.7 in /  34256.2 hPa ESE 14.8 mph /  23.8 km/h 14.8 mph /  23.8 km/h 52 % 0.0 in /  0 mm
16:38 19.9 °F /  -6.7 °C 10.1 °F /  -12.2 °C 1011.7 in /  34256.2 hPa ESE 16.7 mph /  26.9 km/h 16.7 mph /  26.9 km/h 53 % 0.0 in /  0 mm
16:43 19.9 °F /  -6.7 °C 10.1 °F /  -12.2 °C 1010.7 in /  34222.3 hPa ENE 13.0 mph /  20.9 km/h 13.0 mph /  20.9 km/h 53 % 0.0 in /  0 mm
16:48 20.0 °F /  -6.7 °C 10.1 °F /  -12.2 °C 1010.7 in /  34222.3 hPa ESE 18.5 mph /  29.8 km/h 18.5 mph /  29.8 km/h 53 % 0.0 in /  0 mm
16:53 20.1 °F /  -6.6 °C 10.2 °F /  -12.1 °C 1010.7 in /  34222.3 hPa ESE 11.1 mph /  17.9 km/h 11.1 mph /  17.9 km/h 53 % 0.0 in /  0 mm
16:58 20.1 °F /  -6.6 °C 10.2 °F /  -12.1 °C 1011.7 in /  34256.2 hPa ESE 20.4 mph /  32.8 km/h 20.4 mph /  32.8 km/h 53 % 0.0 in /  0 mm
17:03 20.1 °F /  -6.6 °C 10.5 °F /  -11.9 °C 1011.7 in /  34256.2 hPa ESE 13.0 mph /  20.9 km/h 13.0 mph /  20.9 km/h 54 % 0.0 in /  0 mm
17:08 20.1 °F /  -6.6 °C 10.2 °F /  -12.1 °C 1011.7 in /  34256.2 hPa ENE 20.4 mph /  32.8 km/h 20.4 mph /  32.8 km/h 53 % 0.0 in /  0 mm
17:13 20.0 °F /  -6.7 °C 10.1 °F /  -12.2 °C 1011.7 in /  34256.2 hPa East 18.5 mph /  29.8 km/h 18.5 mph /  29.8 km/h 53 % 0.0 in /  0 mm
17:18 19.9 °F /  -6.7 °C 10.1 °F /  -12.2 °C 1011.7 in /  34256.2 hPa NE 16.7 mph /  26.9 km/h 16.7 mph /  26.9 km/h 53 % 0.0 in /  0 mm
17:23 20.1 °F /  -6.6 °C 10.2 °F /  -12.1 °C 1011.7 in /  34256.2 hPa ESE 9.3 mph /  15 km/h 9.3 mph /  15 km/h 53 % 0.0 in /  0 mm
17:28 20.0 °F /  -6.7 °C 10.1 °F /  -12.2 °C 1011.7 in /  34256.2 hPa ESE 11.1 mph /  17.9 km/h 11.1 mph /  17.9 km/h 53 % 0.0 in /  0 mm
17:33 19.8 °F /  -6.8 °C 9.9 °F /  -12.3 °C 1011.7 in /  34256.2 hPa East 14.8 mph /  23.8 km/h 14.8 mph /  23.8 km/h 53 % 0.0 in /  0 mm
17:38 20.1 °F /  -6.6 °C 10.2 °F /  -12.1 °C 1011.7 in /  34256.2 hPa ENE 18.5 mph /  29.8 km/h 18.5 mph /  29.8 km/h 53 % 0.0 in /  0 mm
17:43 19.6 °F /  -6.9 °C 9.8 °F /  -12.3 °C 1010.7 in /  34222.3 hPa East 14.8 mph /  23.8 km/h 14.8 mph /  23.8 km/h 53 % 0.0 in /  0 mm
17:48 19.7 °F /  -6.8 °C 9.6 °F /  -12.4 °C 1010.7 in /  34222.3 hPa NNW 13.0 mph /  20.9 km/h 13.0 mph /  20.9 km/h 52 % 0.0 in /  0 mm
17:53 19.6 °F /  -6.9 °C 9.4 °F /  -12.6 °C 1010.7 in /  34222.3 hPa ENE 16.7 mph /  26.9 km/h 16.7 mph /  26.9 km/h 52 % 0.0 in /  0 mm
17:58 19.6 °F /  -6.9 °C 9.4 °F /  -12.6 °C 1011.7 in /  34256.2 hPa ENE 14.8 mph /  23.8 km/h 14.8 mph /  23.8 km/h 52 % 0.0 in /  0 mm
18:03 19.4 °F /  -7 °C 9.3 °F /  -12.6 °C 1011.7 in /  34256.2 hPa NNE 13.0 mph /  20.9 km/h 13.0 mph /  20.9 km/h 52 % 0.0 in /  0 mm
18:08 19.4 °F /  -7 °C 9.3 °F /  -12.6 °C 1011.7 in /  34256.2 hPa ENE 11.1 mph /  17.9 km/h 11.1 mph /  17.9 km/h 52 % 0.0 in /  0 mm
18:13 19.3 °F /  -7.1 °C 8.9 °F /  -12.8 °C 1011.7 in /  34256.2 hPa East 22.2 mph /  35.7 km/h 22.2 mph /  35.7 km/h 51 % 0.0 in /  0 mm
18:18 19.3 °F /  -7.1 °C 8.9 °F /  -12.8 °C 1011.7 in /  34256.2 hPa ESE 13.0 mph /  20.9 km/h 13.0 mph /  20.9 km/h 51 % 0.0 in /  0 mm
18:23 19.1 °F /  -7.2 °C 8.7 °F /  -12.9 °C 1011.7 in /  34256.2 hPa ENE 14.8 mph /  23.8 km/h 14.8 mph /  23.8 km/h 51 % 0.0 in /  0 mm
18:28 19.0 °F /  -7.2 °C 8.6 °F /  -13 °C 1012.8 in /  34293.4 hPa NE 14.8 mph /  23.8 km/h 14.8 mph /  23.8 km/h 51 % 0.0 in /  0 mm
18:33 18.8 °F /  -7.3 °C 8.7 °F /  -12.9 °C 1012.8 in /  34293.4 hPa East 17.5 mph /  28.2 km/h 17.5 mph /  28.2 km/h 52 % 0.0 in /  0 mm
18:38 18.7 °F /  -7.4 °C 8.9 °F /  -12.8 °C 1012.8 in /  34293.4 hPa ENE 16.7 mph /  26.9 km/h 16.7 mph /  26.9 km/h 53 % 0.0 in /  0 mm
18:44 18.6 °F /  -7.4 °C 9.1 °F /  -12.7 °C 1011.7 in /  34256.2 hPa ENE 11.1 mph /  17.9 km/h 11.1 mph /  17.9 km/h 54 % 0.0 in /  0 mm
18:49 18.7 °F /  -7.4 °C 9.2 °F /  -12.7 °C 1011.7 in /  34256.2 hPa ESE 9.3 mph /  15 km/h 9.3 mph /  15 km/h 54 % 0.0 in /  0 mm
18:54 18.5 °F /  -7.5 °C 9.3 °F /  -12.6 °C 1011.7 in /  34256.2 hPa ENE 20.4 mph /  32.8 km/h 20.4 mph /  32.8 km/h 55 % 0.0 in /  0 mm
18:59 18.4 °F /  -7.6 °C 9.2 °F /  -12.7 °C 1010.7 in /  34222.3 hPa North 9.7 mph /  15.6 km/h 9.7 mph /  15.6 km/h 55 % 0.0 in /  0 mm
19:04 18.5 °F /  -7.5 °C 9.6 °F /  -12.4 °C 1010.7 in /  34222.3 hPa ESE 11.1 mph /  17.9 km/h 11.9 mph /  19.2 km/h 56 % 0.0 in /  0 mm
19:09 18.4 °F /  -7.6 °C 9.4 °F /  -12.6 °C 1010.7 in /  34222.3 hPa NE 11.1 mph /  17.9 km/h 11.1 mph /  17.9 km/h 56 % 0.0 in /  0 mm
19:14 18.4 °F /  -7.6 °C 9.4 °F /  -12.6 °C 1010.7 in /  34222.3 hPa East 20.4 mph /  32.8 km/h 20.4 mph /  32.8 km/h 56 % 0.0 in /  0 mm
19:15 16.0 °F /  -8.9 °C 6.9 °F /  -13.9 °C 1010.7 in /  34222.3 hPa NE 4.8 mph /  7.7 km/h 4.8 mph /  7.7 km/h 55 % 0.0 in /  0 mm
19:19 18.3 °F /  -7.6 °C 9.1 °F /  -12.7 °C 1010.7 in /  34222.3 hPa ENE 16.7 mph /  26.9 km/h 16.7 mph /  26.9 km/h 55 % 0.0 in /  0 mm
19:24 18.3 °F /  -7.6 °C 8.8 °F /  -12.9 °C 1010.7 in /  34222.3 hPa ENE 16.7 mph /  26.9 km/h 16.7 mph /  26.9 km/h 54 % 0.0 in /  0 mm
19:29 18.4 °F /  -7.6 °C 8.9 °F /  -12.8 °C 1010.7 in /  34222.3 hPa ESE 9.5 mph /  15.3 km/h 9.5 mph /  15.3 km/h 54 % 0.0 in /  0 mm
19:34 18.3 °F /  -7.6 °C 8.8 °F /  -12.9 °C 1010.7 in /  34222.3 hPa ESE 16.7 mph /  26.9 km/h 16.7 mph /  26.9 km/h 54 % 0.0 in /  0 mm
19:40 18.3 °F /  -7.6 °C 8.8 °F /  -12.9 °C 1010.7 in /  34222.3 hPa East 9.7 mph /  15.6 km/h 16.1 mph /  25.9 km/h 54 % 0.0 in /  0 mm
19:45 18.2 °F /  -7.7 °C 8.7 °F /  -12.9 °C 1010.7 in /  34222.3 hPa ENE 16.7 mph /  26.9 km/h 16.7 mph /  26.9 km/h 54 % 0.0 in /  0 mm
19:50 18.1 °F /  -7.7 °C 8.7 °F /  -12.9 °C 1010.7 in /  34222.3 hPa ENE 8.0 mph /  12.9 km/h 11.3 mph /  18.2 km/h 54 % 0.0 in /  0 mm
19:55 17.9 °F /  -7.8 °C 8.4 °F /  -13.1 °C 1010.7 in /  34222.3 hPa East 12.2 mph /  19.6 km/h 12.2 mph /  19.6 km/h 54 % 0.0 in /  0 mm
20:00 17.9 °F /  -7.8 °C 8.2 °F /  -13.2 °C 1010.0 in /  34198.6 hPa ESE 16.7 mph /  26.9 km/h 16.7 mph /  26.9 km/h 53 % 0.0 in /  0 mm
20:05 17.7 °F /  -7.9 °C 8.0 °F /  -13.3 °C 1010.0 in /  34198.6 hPa ENE 14.8 mph /  23.8 km/h 14.8 mph /  23.8 km/h 53 % 0.0 in /  0 mm
20:10 17.7 °F /  -7.9 °C 8.0 °F /  -13.3 °C 1010.0 in /  34198.6 hPa East 13.0 mph /  20.9 km/h 13.0 mph /  20.9 km/h 53 % 0.0 in /  0 mm
20:15 17.6 °F /  -8 °C 7.9 °F /  -13.4 °C 1010.0 in /  34198.6 hPa ENE 9.7 mph /  15.6 km/h 16.1 mph /  25.9 km/h 53 % 0.0 in /  0 mm
20:20 17.6 °F /  -8 °C 7.9 °F /  -13.4 °C 1010.0 in /  34198.6 hPa NE 11.1 mph /  17.9 km/h 11.1 mph /  17.9 km/h 53 % 0.0 in /  0 mm
20:25 17.6 °F /  -8 °C 7.9 °F /  -13.4 °C 1010.0 in /  34198.6 hPa East 13.0 mph /  20.9 km/h 13.0 mph /  20.9 km/h 53 % 0.0 in /  0 mm
20:30 17.5 °F /  -8.1 °C 7.8 °F /  -13.4 °C 1010.0 in /  34198.6 hPa ESE 5.6 mph /  9 km/h 5.6 mph /  9 km/h 53 % 0.0 in /  0 mm
20:35 17.4 °F /  -8.1 °C 7.7 °F /  -13.5 °C 1010.0 in /  34198.6 hPa ESE 9.3 mph /  15 km/h 9.3 mph /  15 km/h 53 % 0.0 in /  0 mm
20:40 17.4 °F /  -8.1 °C 7.7 °F /  -13.5 °C 1010.0 in /  34198.6 hPa ENE 7.6 mph /  12.2 km/h 7.6 mph /  12.2 km/h 53 % 0.0 in /  0 mm
20:45 17.4 °F /  -8.1 °C 7.4 °F /  -13.7 °C 1010.0 in /  34198.6 hPa ESE 11.1 mph /  17.9 km/h 11.1 mph /  17.9 km/h 52 % 0.0 in /  0 mm
20:50 17.3 °F /  -8.2 °C 7.3 °F /  -13.7 °C 1010.0 in /  34198.6 hPa East 11.9 mph /  19.2 km/h 11.9 mph /  19.2 km/h 52 % 0.0 in /  0 mm
20:55 17.3 °F /  -8.2 °C 7.3 °F /  -13.7 °C 1010.0 in /  34198.6 hPa East 11.1 mph /  17.9 km/h 11.1 mph /  17.9 km/h 52 % 0.0 in /  0 mm
21:00 17.2 °F /  -8.2 °C 7.3 °F /  -13.7 °C 1010.7 in /  34222.3 hPa East 9.3 mph /  15 km/h 9.3 mph /  15 km/h 52 % 0.0 in /  0 mm
21:05 17.1 °F /  -8.3 °C 7.2 °F /  -13.8 °C 1010.7 in /  34222.3 hPa ENE 7.4 mph /  11.9 km/h 7.4 mph /  11.9 km/h 52 % 0.0 in /  0 mm
21:10 17.1 °F /  -8.3 °C 7.2 °F /  -13.8 °C 1010.7 in /  34222.3 hPa ENE 10.0 mph /  16.1 km/h 10.0 mph /  16.1 km/h 52 % 0.0 in /  0 mm
21:15 17.0 °F /  -8.3 °C 7.1 °F /  -13.8 °C 1010.0 in /  34198.6 hPa NNE 9.3 mph /  15 km/h 9.3 mph /  15 km/h 52 % 0.0 in /  0 mm
21:21 17.1 °F /  -8.3 °C 6.9 °F /  -13.9 °C 1010.0 in /  34198.6 hPa NNE 7.4 mph /  11.9 km/h 7.4 mph /  11.9 km/h 51 % 0.0 in /  0 mm
21:25 14.9 °F /  -9.5 °C 7.4 °F /  -13.7 °C 1010.0 in /  34198.6 hPa Calm   4.8 mph /  7.7 km/h 61 % 0.0 in /  0 mm
21:26 17.1 °F /  -8.3 °C 6.9 °F /  -13.9 °C 1010.0 in /  34198.6 hPa ENE 7.4 mph /  11.9 km/h 7.4 mph /  11.9 km/h 51 % 0.0 in /  0 mm
21:31 17.0 °F /  -8.3 °C 6.8 °F /  -14 °C 1010.7 in /  34222.3 hPa NE 7.4 mph /  11.9 km/h 7.4 mph /  11.9 km/h 51 % 0.0 in /  0 mm
21:35 14.8 °F /  -9.6 °C 7.3 °F /  -13.7 °C 1010.0 in /  34198.6 hPa Calm     61 % 0.0 in /  0 mm
21:36 16.9 °F /  -8.4 °C 7.0 °F /  -13.9 °C 1010.7 in /  34222.3 hPa NNE 10.0 mph /  16.1 km/h 10.0 mph /  16.1 km/h 52 % 0.0 in /  0 mm
21:41 16.9 °F /  -8.4 °C 7.0 °F /  -13.9 °C 1011.7 in /  34256.2 hPa NNE 9.3 mph /  15 km/h 9.3 mph /  15 km/h 52 % 0.0 in /  0 mm
21:45 14.7 °F /  -9.6 °C 7.3 °F /  -13.7 °C 1010.0 in /  34198.6 hPa SW 1.6 mph /  2.6 km/h 3.2 mph /  5.1 km/h 61 % 0.0 in /  0 mm
21:46 16.8 °F /  -8.4 °C 7.2 °F /  -13.8 °C 1011.7 in /  34256.2 hPa NE 9.3 mph /  15 km/h 9.3 mph /  15 km/h 53 % 0.0 in /  0 mm
21:52 16.7 °F /  -8.5 °C 7.1 °F /  -13.8 °C 1011.7 in /  34256.2 hPa NNE 9.3 mph /  15 km/h 9.3 mph /  15 km/h 53 % 0.0 in /  0 mm
21:55 14.7 °F /  -9.6 °C 7.5 °F /  -13.6 °C 1010.0 in /  34198.6 hPa Calm   1.6 mph /  2.6 km/h 62 % 0.0 in /  0 mm
21:57 16.6 °F /  -8.6 °C 7.0 °F /  -13.9 °C 1011.7 in /  34256.2 hPa NE 9.3 mph /  15 km/h 9.3 mph /  15 km/h 53 % 0.0 in /  0 mm
22:02 16.5 °F /  -8.6 °C 6.9 °F /  -13.9 °C 1011.7 in /  34256.2 hPa NNE 5.6 mph /  9 km/h 5.6 mph /  9 km/h 53 % 0.0 in /  0 mm
22:05 14.6 °F /  -9.7 °C 7.4 °F /  -13.7 °C 1010.0 in /  34198.6 hPa Calm   3.2 mph /  5.1 km/h 62 % 0.0 in /  0 mm
22:07 16.5 °F /  -8.6 °C 7.2 °F /  -13.8 °C 1011.7 in /  34256.2 hPa NNE 9.3 mph /  15 km/h 9.3 mph /  15 km/h 54 % 0.0 in /  0 mm
22:12 16.5 °F /  -8.6 °C 7.2 °F /  -13.8 °C 1011.7 in /  34256.2 hPa NNW 9.3 mph /  15 km/h 9.3 mph /  15 km/h 54 % 0.0 in /  0 mm
22:15 14.6 °F /  -9.7 °C 7.4 °F /  -13.7 °C 1010.0 in /  34198.6 hPa WNW 3.2 mph /  5.1 km/h 3.2 mph /  5.1 km/h 62 % 0.0 in /  0 mm
22:17 16.4 °F /  -8.7 °C 7.1 °F /  -13.8 °C 1011.7 in /  34256.2 hPa NE 9.3 mph /  15 km/h 9.3 mph /  15 km/h 54 % 0.0 in /  0 mm
22:22 16.3 °F /  -8.7 °C 7.2 °F /  -13.8 °C 1011.7 in /  34256.2 hPa ENE 9.5 mph /  15.3 km/h 9.5 mph /  15.3 km/h 55 % 0.0 in /  0 mm
22:25 14.5 °F /  -9.7 °C 7.6 °F /  -13.6 °C 1010.0 in /  34198.6 hPa Calm   1.6 mph /  2.6 km/h 63 % 0.0 in /  0 mm
22:28 16.2 °F /  -8.8 °C 7.2 °F /  -13.8 °C 1010.7 in /  34222.3 hPa NNE 9.3 mph /  15 km/h 9.3 mph /  15 km/h 55 % 0.0 in /  0 mm
22:33 16.1 °F /  -8.8 °C 7.1 °F /  -13.8 °C 1010.7 in /  34222.3 hPa NNE 11.9 mph /  19.2 km/h 11.9 mph /  19.2 km/h 55 % 0.0 in /  0 mm
22:35 14.3 °F /  -9.8 °C 7.3 °F /  -13.7 °C 1010.0 in /  34198.6 hPa Calm   1.6 mph /  2.6 km/h 63 % 0.0 in /  0 mm
22:38 16.1 °F /  -8.8 °C 7.1 °F /  -13.8 °C 1010.7 in /  34222.3 hPa East 5.6 mph /  9 km/h 5.6 mph /  9 km/h 55 % 0.0 in /  0 mm
22:43 16.1 °F /  -8.8 °C 7.1 °F /  -13.8 °C 1011.7 in /  34256.2 hPa ENE 7.4 mph /  11.9 km/h 7.4 mph /  11.9 km/h 55 % 0.0 in /  0 mm
22:45 14.2 °F /  -9.9 °C 7.3 °F /  -13.7 °C 1010.0 in /  34198.6 hPa West 1.6 mph /  2.6 km/h 3.2 mph /  5.1 km/h 63 % 0.0 in /  0 mm
22:48 16.2 °F /  -8.8 °C 7.4 °F /  -13.7 °C 1011.7 in /  34256.2 hPa NE 5.6 mph /  9 km/h 5.6 mph /  9 km/h 56 % 0.0 in /  0 mm
22:54 16.2 °F /  -8.8 °C 7.4 °F /  -13.7 °C 1011.7 in /  34256.2 hPa NNE 6.9 mph /  11.1 km/h 6.9 mph /  11.1 km/h 56 % 0.0 in /  0 mm
22:55 14.1 °F /  -9.9 °C 7.2 °F /  -13.8 °C 1010.0 in /  34198.6 hPa West 1.6 mph /  2.6 km/h 3.2 mph /  5.1 km/h 63 % 0.0 in /  0 mm
22:59 16.2 °F /  -8.8 °C 7.2 °F /  -13.8 °C 1011.7 in /  34256.2 hPa ENE 9.3 mph /  15 km/h 9.3 mph /  15 km/h 55 % 0.0 in /  0 mm
23:04 16.2 °F /  -8.8 °C 7.2 °F /  -13.8 °C 1011.7 in /  34256.2 hPa ENE 7.4 mph /  11.9 km/h 7.4 mph /  11.9 km/h 55 % 0.0 in /  0 mm
23:05 14.0 °F /  -10 °C 7.1 °F /  -13.8 °C 1010.0 in /  34198.6 hPa West 1.6 mph /  2.6 km/h 3.2 mph /  5.1 km/h 63 % 0.0 in /  0 mm
23:09 16.2 °F /  -8.8 °C 7.2 °F /  -13.8 °C 1011.7 in /  34256.2 hPa NE 9.5 mph /  15.3 km/h 9.5 mph /  15.3 km/h 55 % 0.0 in /  0 mm
23:14 16.1 °F /  -8.8 °C 7.1 °F /  -13.8 °C 1010.7 in /  34222.3 hPa NNE 9.3 mph /  15 km/h 9.3 mph /  15 km/h 55 % 0.0 in /  0 mm
23:15 14.0 °F /  -10 °C 7.3 °F /  -13.7 °C 1010.0 in /  34198.6 hPa West 1.6 mph /  2.6 km/h 3.2 mph /  5.1 km/h 64 % 0.0 in /  0 mm
23:19 16.0 °F /  -8.9 °C 6.9 °F /  -13.9 °C 1010.7 in /  34222.3 hPa NE 7.4 mph /  11.9 km/h 7.4 mph /  11.9 km/h 55 % 0.0 in /  0 mm
23:24 16.0 °F /  -8.9 °C 6.9 °F /  -13.9 °C 1010.7 in /  34222.3 hPa ENE 11.1 mph /  17.9 km/h 11.1 mph /  17.9 km/h 55 % 0.0 in /  0 mm
23:25 13.7 °F /  -10.2 °C 7.0 °F /  -13.9 °C 1009.0 in /  34164.7 hPa WSW 3.2 mph /  5.1 km/h 3.2 mph /  5.1 km/h 64 % 0.0 in /  0 mm
23:29 16.0 °F /  -8.9 °C 6.9 °F /  -13.9 °C 1010.7 in /  34222.3 hPa NNE 7.6 mph /  12.2 km/h 7.6 mph /  12.2 km/h 55 % 0.0 in /  0 mm
23:34 16.0 °F /  -8.9 °C 6.9 °F /  -13.9 °C 1010.7 in /  34222.3 hPa ESE 7.4 mph /  11.9 km/h 7.4 mph /  11.9 km/h 55 % 0.0 in /  0 mm
23:35 13.3 °F /  -10.4 °C 6.8 °F /  -14 °C 1010.0 in /  34198.6 hPa Calm   3.2 mph /  5.1 km/h 65 % 0.0 in /  0 mm
23:39 16.0 °F /  -8.9 °C 6.9 °F /  -13.9 °C 1010.7 in /  34222.3 hPa NNE 5.8 mph /  9.3 km/h 5.8 mph /  9.3 km/h 55 % 0.0 in /  0 mm
23:44 16.0 °F /  -8.9 °C 6.9 °F /  -13.9 °C 1010.7 in /  34222.3 hPa NNE 9.3 mph /  15 km/h 9.3 mph /  15 km/h 55 % 0.0 in /  0 mm
23:45 13.2 °F /  -10.4 °C 7.0 °F /  -13.9 °C 1010.0 in /  34198.6 hPa SW 3.2 mph /  5.1 km/h 3.2 mph /  5.1 km/h 66 % 0.0 in /  0 mm
23:49 16.0 °F /  -8.9 °C 6.9 °F /  -13.9 °C 1010.7 in /  34222.3 hPa NE 7.4 mph /  11.9 km/h 7.4 mph /  11.9 km/h 55 % 0.0 in /  0 mm
23:54 16.0 °F /  -8.9 °C 6.9 °F /  -13.9 °C 1010.7 in /  34222.3 hPa NNE 5.8 mph /  9.3 km/h 5.8 mph /  9.3 km/h 55 % 0.0 in /  0 mm
23:55 13.4 °F /  -10.3 °C 7.2 °F /  -13.8 °C 1010.0 in /  34198.6 hPa SW 3.2 mph /  5.1 km/h 4.8 mph /  7.7 km/h 66 % 0.0 in /  0 mm
23:59 16.0 °F /  -8.9 °C 6.9 °F /  -13.9 °C 1010.7 in /  34222.3 hPa NE 7.4 mph /  11.9 km/h 7.4 mph /  11.9 km/h 55 % 0.0 in /  0 mm
Meteo Sesrovires
Elogis d' Weather Underground - 3.75 mb

Guio original per  Jim McMurry - jmcmurry@mwt.net Adaptat per a la plantilla per  Wim van der Kuil - Leuven-Template.eu

Trobareu la nostra informacio del temps tambe a:

Weather Underground

AWEKAS